Terminal Aerodrome Forecast
Issued by NWS Blacksburg, VA

Current Version | Previous Version | Graphics & Text | Print | Product List | Glossary On
Versions: 1 2 3 4 5 6 7 8 9 10 11 12 13 14 15 16 17 18 19 20 21 22 23 24 25
000
FTUS41 KRNK 280520
TAFBLF
TAF
KBLF 280520Z 2806/2906 21004KT P6SM -SHRA VCTS BKN035CB
      TEMPO 2806/2809 3SM SHRA OVC025
     FM281100 22006KT P6SM -SHRA BKN035
     FM281400 26007KT P6SM VCSH BKN040
      TEMPO 2814/2816 2SM -SHRA OVC025
     FM281900 28008KT P6SM OVC050
     FM290000 29006KT P6SM BKN025=

USA.gov is the U.S. government's official web portal to all federal, state and local government web resources and services.